sensor_id;sensor_type;location;lat;lon;timestamp;pressure;altitude;pressure_sealevel;temperature;humidity
45888;BME280;31595;51.418;7.572;2022-10-04T00:03:29;101092.59;;;9.50;75.78
45888;BME280;31595;51.418;7.572;2022-10-04T00:06:42;101079.28;;;9.47;77.03
45888;BME280;31595;51.418;7.572;2022-10-04T00:11:42;101082.09;;;9.42;76.51
45888;BME280;31595;51.418;7.572;2022-10-04T00:12:54;101080.97;;;9.43;77.24
45888;BME280;31595;51.418;7.572;2022-10-04T00:15:32;101083.47;;;9.44;76.26
45888;BME280;31595;51.418;7.572;2022-10-04T00:18:47;101073.16;;;9.45;75.70
45888;BME280;31595;51.418;7.572;2022-10-04T00:21:27;101075.41;;;9.43;76.59
45888;BME280;31595;51.418;7.572;2022-10-04T00:24:23;101084.59;;;9.43;76.73
45888;BME280;31595;51.418;7.572;2022-10-04T00:30:33;101090.09;;;9.48;75.59
45888;BME280;31595;51.418;7.572;2022-10-04T00:33:43;101089.28;;;9.48;76.88
45888;BME280;31595;51.418;7.572;2022-10-04T00:36:40;101087.88;;;9.50;75.67
45888;BME280;31595;51.418;7.572;2022-10-04T00:39:44;101088.13;;;9.54;74.79
45888;BME280;31595;51.418;7.572;2022-10-04T00:42:57;101085.34;;;9.54;75.17
45888;BME280;31595;51.418;7.572;2022-10-04T00:45:34;101093.97;;;9.52;74.60
45888;BME280;31595;51.418;7.572;2022-10-04T00:51:55;101087.31;;;9.48;76.00
45888;BME280;31595;51.418;7.572;2022-10-04T00:57:50;101067.38;;;9.41;76.02
45888;BME280;31595;51.418;7.572;2022-10-04T01:00:37;101064.88;;;9.40;76.45
45888;BME280;31595;51.418;7.572;2022-10-04T01:03:12;101063.25;;;9.39;76.66
45888;BME280;31595;51.418;7.572;2022-10-04T01:05:49;101062.94;;;9.40;76.67
45888;BME280;31595;51.418;7.572;2022-10-04T01:08:29;101062.66;;;9.42;77.47
45888;BME280;31595;51.418;7.572;2022-10-04T01:11:46;101047.03;;;9.46;77.12
45888;BME280;31595;51.418;7.572;2022-10-04T01:14:54;101044.19;;;9.51;76.55
45888;BME280;31595;51.418;7.572;2022-10-04T01:17:45;101045.53;;;9.59;77.10
45888;BME280;31595;51.418;7.572;2022-10-04T01:26:57;101024.59;;;9.66;75.80
45888;BME280;31595;51.418;7.572;2022-10-04T01:30:15;101031.78;;;9.67;76.35
45888;BME280;31595;51.418;7.572;2022-10-04T01:32:57;101034.88;;;9.66;76.26
45888;BME280;31595;51.418;7.572;2022-10-04T01:35:33;101028.25;;;9.62;76.05
45888;BME280;31595;51.418;7.572;2022-10-04T01:38:09;101036.28;;;9.63;75.05
45888;BME280;31595;51.418;7.572;2022-10-04T01:41:01;101021.84;;;9.61;75.59
45888;BME280;31595;51.418;7.572;2022-10-04T01:44:05;101021.31;;;9.59;74.60
45888;BME280;31595;51.418;7.572;2022-10-04T01:47:00;101019.38;;;9.60;75.92
45888;BME280;31595;51.418;7.572;2022-10-04T01:53:07;101014.28;;;9.67;75.97
45888;BME280;31595;51.418;7.572;2022-10-04T01:55:47;101008.97;;;9.70;76.18
45888;BME280;31595;51.418;7.572;2022-10-04T01:58:38;101000.56;;;9.75;75.38
45888;BME280;31595;51.418;7.572;2022-10-04T02:01:13;100999.97;;;9.79;74.79
45888;BME280;31595;51.418;7.572;2022-10-04T02:04:14;100997.13;;;9.84;74.35
45888;BME280;31595;51.418;7.572;2022-10-04T02:09:58;100981.03;;;9.81;75.55
45888;BME280;31595;51.418;7.572;2022-10-04T02:12:33;100984.84;;;9.85;75.14
45888;BME280;31595;51.418;7.572;2022-10-04T02:15:11;100979.00;;;9.86;75.45
45888;BME280;31595;51.418;7.572;2022-10-04T02:17:51;100970.88;;;9.90;76.02
45888;BME280;31595;51.418;7.572;2022-10-04T02:20:28;100977.22;;;9.95;76.16
45888;BME280;31595;51.418;7.572;2022-10-04T02:24:03;100974.38;;;10.01;75.20
45888;BME280;31595;51.418;7.572;2022-10-04T02:26:27;100974.81;;;10.08;74.92
45888;BME280;31595;51.418;7.572;2022-10-04T02:29:07;100975.06;;;10.11;75.89
45888;BME280;31595;51.418;7.572;2022-10-04T02:38:08;100984.09;;;10.22;74.52
45888;BME280;31595;51.418;7.572;2022-10-04T02:40:52;100975.97;;;10.26;74.75
45888;BME280;31595;51.418;7.572;2022-10-04T02:43:35;100962.84;;;10.31;74.84
45888;BME280;31595;51.418;7.572;2022-10-04T02:46:33;100958.63;;;10.34;74.53
45888;BME280;31595;51.418;7.572;2022-10-04T02:53:07;100949.19;;;10.11;74.43
45888;BME280;31595;51.418;7.572;2022-10-04T02:58:49;100930.00;;;10.28;74.28
45888;BME280;31595;51.418;7.572;2022-10-04T03:01:26;100924.69;;;10.32;75.02
45888;BME280;31595;51.418;7.572;2022-10-04T03:04:44;100923.03;;;10.31;74.32
45888;BME280;31595;51.418;7.572;2022-10-04T03:07:28;100935.53;;;10.33;74.50
45888;BME280;31595;51.418;7.572;2022-10-04T03:10:22;100943.38;;;10.31;74.40
45888;BME280;31595;51.418;7.572;2022-10-04T03:12:51;100941.94;;;10.29;74.15
45888;BME280;31595;51.418;7.572;2022-10-04T03:15:58;100946.16;;;10.26;73.86
45888;BME280;31595;51.418;7.572;2022-10-04T03:18:32;100945.72;;;10.19;74.31
45888;BME280;31595;51.418;7.572;2022-10-04T03:23:58;100942.94;;;10.19;74.20
45888;BME280;31595;51.418;7.572;2022-10-04T03:26:35;100935.72;;;10.18;74.57
45888;BME280;31595;51.418;7.572;2022-10-04T03:29:10;100939.56;;;10.22;74.19
45888;BME280;31595;51.418;7.572;2022-10-04T03:31:40;100933.09;;;10.27;74.70
45888;BME280;31595;51.418;7.572;2022-10-04T03:34:13;100936.38;;;10.29;75.00
45888;BME280;31595;51.418;7.572;2022-10-04T03:36:43;100935.81;;;10.32;74.37
45888;BME280;31595;51.418;7.572;2022-10-04T03:39:26;100941.00;;;10.39;74.30
45888;BME280;31595;51.418;7.572;2022-10-04T03:41:55;100929.59;;;10.40;74.69
45888;BME280;31595;51.418;7.572;2022-10-04T03:44:24;100922.28;;;10.44;73.92
45888;BME280;31595;51.418;7.572;2022-10-04T03:46:51;100920.53;;;10.48;74.39
45888;BME280;31595;51.418;7.572;2022-10-04T03:49:29;100923.34;;;10.48;73.96
45888;BME280;31595;51.418;7.572;2022-10-04T03:52:00;100921.66;;;10.47;74.35
45888;BME280;31595;51.418;7.572;2022-10-04T03:54:28;100923.84;;;10.50;74.75
45888;BME280;31595;51.418;7.572;2022-10-04T03:56:57;100914.69;;;10.50;74.45
45888;BME280;31595;51.418;7.572;2022-10-04T03:59:26;100914.16;;;10.48;74.47
45888;BME280;31595;51.418;7.572;2022-10-04T04:02:04;100913.00;;;10.49;75.44
45888;BME280;31595;51.418;7.572;2022-10-04T04:04:40;100913.25;;;10.52;75.47
45888;BME280;31595;51.418;7.572;2022-10-04T04:07:13;100910.34;;;10.57;74.81
45888;BME280;31595;51.418;7.572;2022-10-04T04:09:47;100908.09;;;10.60;74.48
45888;BME280;31595;51.418;7.572;2022-10-04T04:12:19;100909.84;;;10.55;73.90
45888;BME280;31595;51.418;7.572;2022-10-04T04:14:49;100904.78;;;10.57;73.91
45888;BME280;31595;51.418;7.572;2022-10-04T04:17:37;100903.97;;;10.57;74.55
45888;BME280;31595;51.418;7.572;2022-10-04T04:20:16;100911.91;;;10.50;73.97
45888;BME280;31595;51.418;7.572;2022-10-04T04:22:57;100909.41;;;10.48;74.10
45888;BME280;31595;51.418;7.572;2022-10-04T04:25:27;100920.09;;;10.41;73.32
45888;BME280;31595;51.418;7.572;2022-10-04T04:28:02;100919.13;;;10.32;72.97
45888;BME280;31595;51.418;7.572;2022-10-04T04:30:33;100918.13;;;10.23;73.07
45888;BME280;31595;51.418;7.572;2022-10-04T04:33:08;100919.31;;;10.16;73.53
45888;BME280;31595;51.418;7.572;2022-10-04T04:35:38;100911.66;;;10.08;73.92
45888;BME280;31595;51.418;7.572;2022-10-04T04:38:15;100900.56;;;10.03;73.41
45888;BME280;31595;51.418;7.572;2022-10-04T04:40:43;100895.00;;;10.03;73.98
45888;BME280;31595;51.418;7.572;2022-10-04T04:43:15;100891.16;;;9.99;74.73
45888;BME280;31595;51.418;7.572;2022-10-04T04:45:44;100880.94;;;9.94;74.95
45888;BME280;31595;51.418;7.572;2022-10-04T04:48:14;100891.84;;;9.91;74.13
45888;BME280;31595;51.418;7.572;2022-10-04T04:50:42;100886.34;;;9.86;74.46
45888;BME280;31595;51.418;7.572;2022-10-04T04:53:18;100883.94;;;9.79;74.38
45888;BME280;31595;51.418;7.572;2022-10-04T04:55:49;100888.75;;;9.73;74.55
45888;BME280;31595;51.418;7.572;2022-10-04T04:58:17;100890.53;;;9.64;74.30
45888;BME280;31595;51.418;7.572;2022-10-04T05:00:51;100882.78;;;9.61;75.43
45888;BME280;31595;51.418;7.572;2022-10-04T05:03:20;100890.59;;;9.59;75.09
45888;BME280;31595;51.418;7.572;2022-10-04T05:05:48;100889.84;;;9.53;75.17
45888;BME280;31595;51.418;7.572;2022-10-04T05:08:20;100877.34;;;9.51;74.92
45888;BME280;31595;51.418;7.572;2022-10-04T05:10:51;100872.31;;;9.53;75.18
45888;BME280;31595;51.418;7.572;2022-10-04T05:13:30;100869.91;;;9.46;75.77
45888;BME280;31595;51.418;7.572;2022-10-04T05:15:59;100873.81;;;9.45;76.25
45888;BME280;31595;51.418;7.572;2022-10-04T05:18:29;100861.56;;;9.46;74.99
45888;BME280;31595;51.418;7.572;2022-10-04T05:20:57;100866.31;;;9.46;75.24
45888;BME280;31595;51.418;7.572;2022-10-04T05:23:31;100865.16;;;9.47;76.40
45888;BME280;31595;51.418;7.572;2022-10-04T05:25:59;100853.75;;;9.48;76.59
45888;BME280;31595;51.418;7.572;2022-10-04T05:28:29;100855.94;;;9.51;75.41
45888;BME280;31595;51.418;7.572;2022-10-04T05:31:07;100843.41;;;9.54;76.19
45888;BME280;31595;51.418;7.572;2022-10-04T05:33:43;100854.75;;;9.58;76.92
45888;BME280;31595;51.418;7.572;2022-10-04T05:36:38;100864.16;;;9.62;76.25
45888;BME280;31595;51.418;7.572;2022-10-04T05:39:15;100854.91;;;9.66;75.65
45888;BME280;31595;51.418;7.572;2022-10-04T05:41:54;100861.00;;;9.68;75.97
45888;BME280;31595;51.418;7.572;2022-10-04T05:44:25;100854.84;;;9.71;75.54
45888;BME280;31595;51.418;7.572;2022-10-04T05:46:54;100853.88;;;9.81;75.50
45888;BME280;31595;51.418;7.572;2022-10-04T05:49:24;100852.44;;;9.84;75.28
45888;BME280;31595;51.418;7.572;2022-10-04T05:51:54;100861.31;;;9.86;76.02
45888;BME280;31595;51.418;7.572;2022-10-04T05:54:25;100860.69;;;9.89;75.76
45888;BME280;31595;51.418;7.572;2022-10-04T05:59:57;100871.41;;;10.01;74.79
45888;BME280;31595;51.418;7.572;2022-10-04T06:02:40;100879.97;;;10.04;75.31
45888;BME280;31595;51.418;7.572;2022-10-04T06:05:18;100885.47;;;10.09;74.49
45888;BME280;31595;51.418;7.572;2022-10-04T06:07:56;100887.84;;;10.16;74.18
45888;BME280;31595;51.418;7.572;2022-10-04T06:10:54;100875.75;;;10.26;74.70
45888;BME280;31595;51.418;7.572;2022-10-04T06:13:44;100875.66;;;10.12;75.15
45888;BME280;31595;51.418;7.572;2022-10-04T06:16:25;100867.41;;;10.26;74.80
45888;BME280;31595;51.418;7.572;2022-10-04T06:19:13;100870.34;;;10.34;73.93
45888;BME280;31595;51.418;7.572;2022-10-04T06:22:04;100874.72;;;10.41;73.75
45888;BME280;31595;51.418;7.572;2022-10-04T06:24:40;100874.25;;;10.52;74.04
45888;BME280;31595;51.418;7.572;2022-10-04T06:27:16;100870.78;;;10.61;73.51
45888;BME280;31595;51.418;7.572;2022-10-04T06:29:48;100866.97;;;10.70;73.66
45888;BME280;31595;51.418;7.572;2022-10-04T06:32:41;100859.91;;;10.92;72.74
45888;BME280;31595;51.418;7.572;2022-10-04T06:41:28;100865.47;;;11.75;70.51
45888;BME280;31595;51.418;7.572;2022-10-04T06:44:22;100858.50;;;12.00;70.42
45888;BME280;31595;51.418;7.572;2022-10-04T06:47:09;100858.09;;;12.29;69.92
45888;BME280;31595;51.418;7.572;2022-10-04T06:49:45;100858.03;;;12.66;68.14
45888;BME280;31595;51.418;7.572;2022-10-04T06:52:43;100866.97;;;13.08;66.58
45888;BME280;31595;51.418;7.572;2022-10-04T06:55:34;100858.78;;;13.51;66.34
45888;BME280;31595;51.418;7.572;2022-10-04T06:58:23;100859.88;;;13.99;63.64
45888;BME280;31595;51.418;7.572;2022-10-04T07:00:57;100849.81;;;14.41;61.43
45888;BME280;31595;51.418;7.572;2022-10-04T07:03:30;100849.91;;;14.97;61.26
45888;BME280;31595;51.418;7.572;2022-10-04T07:06:02;100861.63;;;15.38;58.58
45888;BME280;31595;51.418;7.572;2022-10-04T07:08:36;100857.63;;;15.77;58.04
45888;BME280;31595;51.418;7.572;2022-10-04T07:11:11;100856.13;;;16.22;57.03
45888;BME280;31595;51.418;7.572;2022-10-04T07:13:46;100852.97;;;16.78;55.48
45888;BME280;31595;51.418;7.572;2022-10-04T07:16:28;100863.63;;;17.30;53.91
45888;BME280;31595;51.418;7.572;2022-10-04T07:19:02;100873.50;;;17.49;53.66
45888;BME280;31595;51.418;7.572;2022-10-04T07:21:36;100866.44;;;17.79;52.28
45888;BME280;31595;51.418;7.572;2022-10-04T07:24:08;100862.53;;;18.21;51.06
45888;BME280;31595;51.418;7.572;2022-10-04T07:26:44;100861.97;;;18.43;50.78
45888;BME280;31595;51.418;7.572;2022-10-04T07:29:15;100858.28;;;18.55;49.65
45888;BME280;31595;51.418;7.572;2022-10-04T07:31:51;100856.13;;;18.36;49.76
45888;BME280;31595;51.418;7.572;2022-10-04T07:34:22;100861.00;;;18.52;49.89
45888;BME280;31595;51.418;7.572;2022-10-04T07:36:53;100861.09;;;18.55;49.64
45888;BME280;31595;51.418;7.572;2022-10-04T07:39:24;100854.59;;;18.67;49.76
45888;BME280;31595;51.418;7.572;2022-10-04T07:41:55;100859.50;;;18.98;49.75
45888;BME280;31595;51.418;7.572;2022-10-04T07:44:25;100856.41;;;19.35;47.96
45888;BME280;31595;51.418;7.572;2022-10-04T07:47:02;100858.81;;;20.00;47.43
45888;BME280;31595;51.418;7.572;2022-10-04T07:49:36;100849.69;;;20.26;46.72
45888;BME280;31595;51.418;7.572;2022-10-04T07:52:22;100864.25;;;20.09;46.26
45888;BME280;31595;51.418;7.572;2022-10-04T07:54:58;100872.72;;;20.09;46.05
45888;BME280;31595;51.418;7.572;2022-10-04T07:57:31;100868.06;;;19.81;46.75
45888;BME280;31595;51.418;7.572;2022-10-04T08:00:10;100871.25;;;19.64;47.43
45888;BME280;31595;51.418;7.572;2022-10-04T08:02:46;100862.44;;;19.50;48.05
45888;BME280;31595;51.418;7.572;2022-10-04T08:05:20;100864.19;;;19.38;48.50
45888;BME280;31595;51.418;7.572;2022-10-04T08:07:58;100867.72;;;19.19;48.09
45888;BME280;31595;51.418;7.572;2022-10-04T08:10:28;100857.22;;;19.04;48.94
45888;BME280;31595;51.418;7.572;2022-10-04T08:13:05;100859.31;;;19.23;49.16
45888;BME280;31595;51.418;7.572;2022-10-04T08:15:37;100860.97;;;19.24;50.04
45888;BME280;31595;51.418;7.572;2022-10-04T08:18:28;100861.97;;;19.32;49.39
45888;BME280;31595;51.418;7.572;2022-10-04T08:20:59;100852.88;;;19.38;49.55
45888;BME280;31595;51.418;7.572;2022-10-04T08:23:43;100852.88;;;20.05;48.00
45888;BME280;31595;51.418;7.572;2022-10-04T08:26:25;100861.41;;;22.33;43.64
45888;BME280;31595;51.418;7.572;2022-10-04T08:29:07;100845.94;;;23.94;40.65
45888;BME280;31595;51.418;7.572;2022-10-04T08:32:01;100843.97;;;25.94;36.93
45888;BME280;31595;51.418;7.572;2022-10-04T08:37:29;100838.56;;;28.37;32.18
45888;BME280;31595;51.418;7.572;2022-10-04T08:40:21;100829.59;;;29.24;30.69
45888;BME280;31595;51.418;7.572;2022-10-04T08:46:25;100847.03;;;30.84;28.04
45888;BME280;31595;51.418;7.572;2022-10-04T08:52:20;100843.66;;;30.32;27.21
45888;BME280;31595;51.418;7.572;2022-10-04T08:55:17;100840.25;;;31.92;26.56
45888;BME280;31595;51.418;7.572;2022-10-04T08:58:03;100842.19;;;33.22;24.91
45888;BME280;31595;51.418;7.572;2022-10-04T09:00:49;100836.66;;;34.54;23.18
45888;BME280;31595;51.418;7.572;2022-10-04T09:03:57;100829.63;;;35.86;21.73
45888;BME280;31595;51.418;7.572;2022-10-04T09:06:42;100824.50;;;36.88;20.61
45888;BME280;31595;51.418;7.572;2022-10-04T09:09:45;100828.19;;;37.31;19.96
45888;BME280;31595;51.418;7.572;2022-10-04T09:12:36;100830.53;;;38.14;19.26
45888;BME280;31595;51.418;7.572;2022-10-04T09:15:25;100832.44;;;38.17;18.11
45888;BME280;31595;51.418;7.572;2022-10-04T09:18:06;100826.00;;;38.13;17.87
45888;BME280;31595;51.418;7.572;2022-10-04T09:20:53;100815.97;;;36.84;18.93
45888;BME280;31595;51.418;7.572;2022-10-04T09:24:04;100817.41;;;37.22;18.29
45888;BME280;31595;51.418;7.572;2022-10-04T09:26:42;100817.88;;;36.87;18.96
45888;BME280;31595;51.418;7.572;2022-10-04T09:29:25;100812.31;;;34.95;19.62
45888;BME280;31595;51.418;7.572;2022-10-04T09:32:21;100802.72;;;36.13;19.58
45888;BME280;31595;51.418;7.572;2022-10-04T09:35:22;100796.66;;;36.72;18.84
45888;BME280;31595;51.418;7.572;2022-10-04T09:38:07;100795.16;;;36.15;18.89
45888;BME280;31595;51.418;7.572;2022-10-04T09:41:03;100800.63;;;35.67;19.30
45888;BME280;31595;51.418;7.572;2022-10-04T09:43:58;100799.50;;;35.92;18.95
45888;BME280;31595;51.418;7.572;2022-10-04T09:46:52;100786.53;;;36.49;19.90
45888;BME280;31595;51.418;7.572;2022-10-04T09:52:35;100791.09;;;35.57;20.35
45888;BME280;31595;51.418;7.572;2022-10-04T09:55:33;100787.91;;;36.02;19.20
45888;BME280;31595;51.418;7.572;2022-10-04T10:01:15;100780.72;;;37.34;18.48
45888;BME280;31595;51.418;7.572;2022-10-04T10:07:08;100777.94;;;35.75;19.33
45888;BME280;31595;51.418;7.572;2022-10-04T10:09:44;100776.44;;;35.61;19.72
45888;BME280;31595;51.418;7.572;2022-10-04T10:12:58;100766.94;;;36.07;18.89
45888;BME280;31595;51.418;7.572;2022-10-04T10:15:54;100776.75;;;35.54;19.77
45888;BME280;31595;51.418;7.572;2022-10-04T10:18:35;100765.03;;;35.67;19.99
45888;BME280;31595;51.418;7.572;2022-10-04T10:21:33;100763.19;;;37.19;19.17
45888;BME280;31595;51.418;7.572;2022-10-04T10:24:25;100767.03;;;38.27;18.07
45888;BME280;31595;51.418;7.572;2022-10-04T10:27:22;100769.53;;;38.64;17.16
45888;BME280;31595;51.418;7.572;2022-10-04T10:30:07;100762.19;;;39.39;16.52
45888;BME280;31595;51.418;7.572;2022-10-04T10:33:05;100752.34;;;39.78;16.70
45888;BME280;31595;51.418;7.572;2022-10-04T10:35:51;100755.94;;;40.14;15.91
45888;BME280;31595;51.418;7.572;2022-10-04T10:38:29;100754.44;;;40.24;15.72
45888;BME280;31595;51.418;7.572;2022-10-04T10:41:17;100749.97;;;37.18;17.57
45888;BME280;31595;51.418;7.572;2022-10-04T10:44:02;100744.31;;;38.02;17.72
45888;BME280;31595;51.418;7.572;2022-10-04T10:46:52;100747.56;;;37.65;17.66
45888;BME280;31595;51.418;7.572;2022-10-04T10:49:37;100745.34;;;37.02;17.89
45888;BME280;31595;51.418;7.572;2022-10-04T10:52:31;100750.59;;;36.89;17.94
45888;BME280;31595;51.418;7.572;2022-10-04T10:55:28;100739.69;;;36.32;19.09
45888;BME280;31595;51.418;7.572;2022-10-04T10:58:20;100741.81;;;36.13;19.02
45888;BME280;31595;51.418;7.572;2022-10-04T11:00:58;100737.34;;;36.54;18.05
45888;BME280;31595;51.418;7.572;2022-10-04T11:03:53;100736.69;;;36.69;18.66
45888;BME280;31595;51.418;7.572;2022-10-04T11:06:49;100727.44;;;37.04;18.39
45888;BME280;31595;51.418;7.572;2022-10-04T11:09:31;100729.50;;;37.12;17.50
45888;BME280;31595;51.418;7.572;2022-10-04T11:12:21;100730.34;;;36.28;17.96
45888;BME280;31595;51.418;7.572;2022-10-04T11:18:33;100734.91;;;35.36;19.76
45888;BME280;31595;51.418;7.572;2022-10-04T11:21:22;100737.28;;;36.12;18.08
45888;BME280;31595;51.418;7.572;2022-10-04T11:24:17;100728.78;;;36.60;18.39
45888;BME280;31595;51.418;7.572;2022-10-04T11:27:13;100731.78;;;36.42;18.07
45888;BME280;31595;51.418;7.572;2022-10-04T11:29:55;100729.03;;;36.38;18.08
45888;BME280;31595;51.418;7.572;2022-10-04T11:36:04;100734.91;;;34.78;18.72
45888;BME280;31595;51.418;7.572;2022-10-04T11:39:00;100719.94;;;34.79;19.63
45888;BME280;31595;51.418;7.572;2022-10-04T11:41:41;100726.41;;;34.52;18.58
45888;BME280;31595;51.418;7.572;2022-10-04T11:44:53;100718.38;;;33.24;19.86
45888;BME280;31595;51.418;7.572;2022-10-04T11:50:31;100721.56;;;33.95;18.98
45888;BME280;31595;51.418;7.572;2022-10-04T11:53:27;100705.78;;;33.65;19.77
45888;BME280;31595;51.418;7.572;2022-10-04T11:56:12;100713.84;;;33.57;19.90
45888;BME280;31595;51.418;7.572;2022-10-04T11:58:51;100708.81;;;33.84;19.60
45888;BME280;31595;51.418;7.572;2022-10-04T12:01:43;100711.81;;;33.80;20.24
45888;BME280;31595;51.418;7.572;2022-10-04T12:07:37;100707.25;;;33.70;19.68
45888;BME280;31595;51.418;7.572;2022-10-04T12:10:21;100693.75;;;32.71;20.89
45888;BME280;31595;51.418;7.572;2022-10-04T12:13:25;100685.53;;;32.44;20.40
45888;BME280;31595;51.418;7.572;2022-10-04T12:16:44;100695.59;;;32.65;20.37
45888;BME280;31595;51.418;7.572;2022-10-04T12:19:53;100677.00;;;32.79;20.74
45888;BME280;31595;51.418;7.572;2022-10-04T12:22:41;100675.19;;;32.72;20.71
45888;BME280;31595;51.418;7.572;2022-10-04T12:28:49;100673.97;;;33.08;20.26
45888;BME280;31595;51.418;7.572;2022-10-04T12:31:24;100674.09;;;32.92;20.17
45888;BME280;31595;51.418;7.572;2022-10-04T12:34:01;100679.03;;;33.74;19.21
45888;BME280;31595;51.418;7.572;2022-10-04T12:36:40;100673.41;;;33.57;19.55
45888;BME280;31595;51.418;7.572;2022-10-04T12:39:23;100661.22;;;33.75;20.21
45888;BME280;31595;51.418;7.572;2022-10-04T12:42:04;100654.84;;;34.34;18.96
45888;BME280;31595;51.418;7.572;2022-10-04T12:44:43;100657.06;;;34.08;19.02
45888;BME280;31595;51.418;7.572;2022-10-04T12:47:37;100655.94;;;33.17;19.71
45888;BME280;31595;51.418;7.572;2022-10-04T12:50:19;100638.38;;;32.76;19.44
45888;BME280;31595;51.418;7.572;2022-10-04T12:52:54;100643.47;;;32.60;19.80
45888;BME280;31595;51.418;7.572;2022-10-04T12:58:27;100650.28;;;31.85;20.41
45888;BME280;31595;51.418;7.572;2022-10-04T13:01:06;100654.06;;;31.99;20.27
45888;BME280;31595;51.418;7.572;2022-10-04T13:03:59;100647.97;;;31.67;20.47
45888;BME280;31595;51.418;7.572;2022-10-04T13:06:44;100647.06;;;31.83;20.90
45888;BME280;31595;51.418;7.572;2022-10-04T13:09:27;100631.31;;;31.88;21.91
45888;BME280;31595;51.418;7.572;2022-10-04T13:12:07;100617.78;;;31.43;21.55
45888;BME280;31595;51.418;7.572;2022-10-04T13:17:38;100625.34;;;31.53;21.59
45888;BME280;31595;51.418;7.572;2022-10-04T13:20:23;100618.78;;;32.20;21.94
45888;BME280;31595;51.418;7.572;2022-10-04T13:22:59;100617.53;;;31.37;20.39
45888;BME280;31595;51.418;7.572;2022-10-04T13:25:42;100620.66;;;31.13;20.81
45888;BME280;31595;51.418;7.572;2022-10-04T13:28:22;100614.88;;;29.99;21.63
45888;BME280;31595;51.418;7.572;2022-10-04T13:30:56;100621.34;;;30.03;22.32
45888;BME280;31595;51.418;7.572;2022-10-04T13:33:32;100613.16;;;29.85;21.12
45888;BME280;31595;51.418;7.572;2022-10-04T13:36:07;100621.03;;;29.81;23.43
45888;BME280;31595;51.418;7.572;2022-10-04T13:39:08;100627.94;;;29.43;22.95
45888;BME280;31595;51.418;7.572;2022-10-04T13:42:02;100627.03;;;28.83;23.12
45888;BME280;31595;51.418;7.572;2022-10-04T13:44:45;100614.38;;;28.57;24.43
45888;BME280;31595;51.418;7.572;2022-10-04T13:47:52;100609.97;;;27.98;25.43
45888;BME280;31595;51.418;7.572;2022-10-04T13:50:33;100604.47;;;27.49;26.84
45888;BME280;31595;51.418;7.572;2022-10-04T13:53:14;100603.16;;;28.15;26.05
45888;BME280;31595;51.418;7.572;2022-10-04T13:56:16;100609.59;;;28.73;25.71
45888;BME280;31595;51.418;7.572;2022-10-04T13:59:09;100617.13;;;29.11;26.04
45888;BME280;31595;51.418;7.572;2022-10-04T14:10:54;100590.22;;;28.30;25.33
45888;BME280;31595;51.418;7.572;2022-10-04T14:13:42;100598.81;;;28.03;24.88
45888;BME280;31595;51.418;7.572;2022-10-04T14:19:38;100584.22;;;27.63;25.15
45888;BME280;31595;51.418;7.572;2022-10-04T14:22:29;100589.06;;;26.98;25.89
45888;BME280;31595;51.418;7.572;2022-10-04T14:25:25;100586.41;;;26.80;26.06
45888;BME280;31595;51.418;7.572;2022-10-04T14:28:22;100587.09;;;26.95;25.81
45888;BME280;31595;51.418;7.572;2022-10-04T14:31:15;100584.16;;;26.98;25.36
45888;BME280;31595;51.418;7.572;2022-10-04T14:34:02;100577.13;;;27.06;25.92
45888;BME280;31595;51.418;7.572;2022-10-04T14:39:57;100577.69;;;26.49;26.37
45888;BME280;31595;51.418;7.572;2022-10-04T14:42:45;100587.47;;;25.88;27.04
45888;BME280;31595;51.418;7.572;2022-10-04T14:45:21;100582.81;;;26.20;27.18
45888;BME280;31595;51.418;7.572;2022-10-04T14:53:59;100576.19;;;25.67;27.70
45888;BME280;31595;51.418;7.572;2022-10-04T14:56:38;100570.50;;;25.60;28.71
45888;BME280;31595;51.418;7.572;2022-10-04T14:59:37;100559.94;;;25.57;28.01
45888;BME280;31595;51.418;7.572;2022-10-04T15:05:28;100552.25;;;25.54;28.56
45888;BME280;31595;51.418;7.572;2022-10-04T15:11:02;100556.03;;;25.25;29.01
45888;BME280;31595;51.418;7.572;2022-10-04T15:13:34;100565.72;;;25.39;29.67
45888;BME280;31595;51.418;7.572;2022-10-04T15:16:12;100559.69;;;25.15;30.65
45888;BME280;31595;51.418;7.572;2022-10-04T15:18:53;100567.94;;;24.74;30.75
45888;BME280;31595;51.418;7.572;2022-10-04T15:21:44;100573.25;;;24.43;31.48
45888;BME280;31595;51.418;7.572;2022-10-04T15:24:28;100567.94;;;24.27;31.30
45888;BME280;31595;51.418;7.572;2022-10-04T15:27:28;100568.31;;;23.86;32.14
45888;BME280;31595;51.418;7.572;2022-10-04T15:30:12;100565.38;;;23.61;33.44
45888;BME280;31595;51.418;7.572;2022-10-04T15:32:49;100559.66;;;23.54;33.89
45888;BME280;31595;51.418;7.572;2022-10-04T15:35:25;100564.09;;;23.40;34.00
45888;BME280;31595;51.418;7.572;2022-10-04T15:37:57;100567.63;;;23.12;34.42
45888;BME280;31595;51.418;7.572;2022-10-04T15:40:34;100565.13;;;23.03;35.19
45888;BME280;31595;51.418;7.572;2022-10-04T15:43:25;100555.50;;;23.26;35.51
45888;BME280;31595;51.418;7.572;2022-10-04T15:49:30;100549.44;;;23.38;35.14
45888;BME280;31595;51.418;7.572;2022-10-04T15:52:12;100553.47;;;23.23;35.44
45888;BME280;31595;51.418;7.572;2022-10-04T15:55:04;100565.97;;;23.04;35.72
45888;BME280;31595;51.418;7.572;2022-10-04T15:57:54;100567.31;;;22.69;36.91
45888;BME280;31595;51.418;7.572;2022-10-04T16:00:41;100560.91;;;22.27;38.29
45888;BME280;31595;51.418;7.572;2022-10-04T16:03:23;100558.13;;;22.31;37.90
45888;BME280;31595;51.418;7.572;2022-10-04T16:05:58;100563.28;;;22.22;38.22
45888;BME280;31595;51.418;7.572;2022-10-04T16:08:46;100568.31;;;21.95;39.08
45888;BME280;31595;51.418;7.572;2022-10-04T16:11:28;100563.72;;;21.83;39.27
45888;BME280;31595;51.418;7.572;2022-10-04T16:14:21;100566.50;;;21.76;39.62
45888;BME280;31595;51.418;7.572;2022-10-04T16:17:14;100573.31;;;21.71;39.91
45888;BME280;31595;51.418;7.572;2022-10-04T16:20:05;100577.41;;;21.40;41.27